Time;durP1;ratioP1;P1;durP2;ratioP2;P2;SDS_P1;SDS_P2;PMS_P1;PMS_P2;Temp;Humidity;BMP_temperature;BMP_pressure;BME280_temperature;BME280_humidity;BME280_pressure;Samples;Min_cycle;Max_cycle;Signal;HPM_P1;HPM_P2
2024/01/01 05:00:48;;;;;;;3.13;1.97;;;6.50;97.30;;;;;;5915768;23;20489;-96
2024/01/01 05:03:14;;;;;;;1.37;1.27;;;6.50;97.30;;;;;;4948758;29;20493;-95
2024/01/01 05:05:39;;;;;;;1.53;1.43;;;6.50;97.30;;;;;;4943044;29;20187;-94
2024/01/01 05:08:05;;;;;;;1.83;1.73;;;6.50;97.30;;;;;;4947658;29;20191;-95
2024/01/01 05:10:31;;;;;;;2.00;1.90;;;6.50;97.30;;;;;;4949454;29;20176;-96
2024/01/01 05:12:56;;;;;;;5.70;2.20;;;6.50;97.30;;;;;;4949318;29;20416;-96
2024/01/01 05:15:23;;;;;;;1.60;1.50;;;6.50;97.30;;;;;;4931005;29;20259;-94
2024/01/01 05:17:48;;;;;;;1.83;1.30;;;6.40;97.30;;;;;;4945856;29;20458;-95
2024/01/01 05:20:14;;;;;;;1.47;1.37;;;6.50;97.30;;;;;;4945835;29;20283;-95
2024/01/01 05:22:40;;;;;;;1.40;1.30;;;6.50;97.30;;;;;;4945861;29;20674;-93
2024/01/01 05:25:06;;;;;;;2.53;1.33;;;6.50;97.30;;;;;;4947596;29;20378;-94
2024/01/01 05:27:35;;;;;;;1.30;1.20;;;6.50;97.30;;;;;;4947208;29;20524;-95
2024/01/01 05:30:04;;;;;;;1.60;1.47;;;6.50;97.30;;;;;;4947397;29;20482;-94
2024/01/01 05:32:31;;;;;;;1.53;1.43;;;6.50;97.30;;;;;;4944928;29;20458;-95
2024/01/01 05:34:56;;;;;;;1.63;1.53;;;6.50;97.30;;;;;;4950367;29;20432;-93
2024/01/01 05:37:22;;;;;;;1.40;1.30;;;6.40;97.30;;;;;;4949558;29;20436;-95
2024/01/01 05:39:47;;;;;;;1.67;1.37;;;6.40;97.30;;;;;;4945162;29;20226;-95
2024/01/01 05:42:13;;;;;;;1.20;1.10;;;6.40;97.30;;;;;;4946340;29;20238;-95
2024/01/01 05:44:39;;;;;;;1.47;1.43;;;6.40;97.30;;;;;;4948320;29;20279;-95
2024/01/01 05:47:04;;;;;;;1.43;1.33;;;6.40;97.30;;;;;;4947827;29;20184;-95
2024/01/01 05:49:30;;;;;;;1.23;1.13;;;6.30;97.30;;;;;;4948446;29;20238;-94
2024/01/01 05:51:55;;;;;;;1.70;1.60;;;6.30;97.30;;;;;;4949392;29;20199;-94
2024/01/01 05:54:21;;;;;;;3.53;1.80;;;6.30;97.30;;;;;;4948780;29;20200;-94
2024/01/01 05:56:46;;;;;;;1.30;1.20;;;6.30;97.30;;;;;;4950530;29;20199;-95
2024/01/01 05:59:12;;;;;;;1.83;1.50;;;6.30;97.30;;;;;;4950046;29;20198;-94
2024/01/01 06:01:37;;;;;;;2.30;2.10;;;6.20;97.30;;;;;;4948194;29;20228;-94
2024/01/01 06:04:03;;;;;;;2.40;1.40;;;6.20;97.30;;;;;;4950141;29;20188;-95
2024/01/01 06:06:28;;;;;;;1.60;1.50;;;6.20;97.30;;;;;;4948417;29;20191;-95
2024/01/01 06:08:54;;;;;;;2.00;1.73;;;6.20;97.30;;;;;;4946341;29;20571;-93
2024/01/01 06:11:19;;;;;;;1.10;1.00;;;6.20;97.30;;;;;;4948391;29;20207;-95
2024/01/01 06:13:45;;;;;;;1.30;1.20;;;6.10;97.30;;;;;;4965068;29;20175;-94
2024/01/01 06:16:13;;;;;;;1.53;1.43;;;6.20;97.30;;;;;;4947847;29;20195;-95
2024/01/01 06:18:38;;;;;;;1.10;1.00;;;6.10;97.30;;;;;;4945666;28;20184;-95
2024/01/01 06:21:04;;;;;;;3.30;3.17;;;6.10;97.30;;;;;;4949171;29;20451;-94
2024/01/01 06:23:30;;;;;;;1.77;1.33;;;6.10;97.30;;;;;;4946020;29;20294;-95
2024/01/01 06:25:56;;;;;;;3.43;1.90;;;6.10;97.30;;;;;;4948851;29;20267;-94
2024/01/01 06:28:22;;;;;;;2.03;1.57;;;6.10;97.30;;;;;;4947450;29;20787;-95
2024/01/01 06:30:47;;;;;;;1.40;1.30;;;6.00;97.30;;;;;;4948345;29;20199;-96
2024/01/01 06:33:13;;;;;;;3.00;2.40;;;6.00;97.30;;;;;;4950882;28;20456;-94
2024/01/01 06:35:39;;;;;;;1.63;1.40;;;6.00;97.30;;;;;;4953323;29;20180;-95
2024/01/01 06:38:05;;;;;;;1.97;1.40;;;5.90;97.30;;;;;;4951018;29;20491;-95
2024/01/01 06:40:30;;;;;;;1.20;1.10;;;5.80;97.30;;;;;;4949618;29;20642;-94
2024/01/01 06:42:56;;;;;;;1.83;1.73;;;5.80;97.30;;;;;;4948871;29;20184;-93
2024/01/01 06:45:22;;;;;;;40.47;2.57;;;5.80;97.30;;;;;;4948393;29;20179;-94
2024/01/01 06:47:48;;;;;;;1.07;0.97;;;5.80;97.30;;;;;;4947772;29;20184;-94
2024/01/01 06:50:14;;;;;;;1.00;0.90;;;5.80;97.30;;;;;;4947662;29;20524;-94
2024/01/01 06:52:40;;;;;;;1.30;1.17;;;5.80;97.30;;;;;;4946269;28;20963;-94
2024/01/01 06:55:06;;;;;;;5.50;1.57;;;5.80;97.30;;;;;;4947856;29;20420;-95
2024/01/01 06:57:32;;;;;;;1.50;1.40;;;5.80;97.30;;;;;;4947770;29;20595;-95
2024/01/01 06:59:57;;;;;;;3.03;2.30;;;5.80;97.30;;;;;;4947132;29;20183;-95
2024/01/01 07:02:23;;;;;;;1.97;1.33;;;5.80;97.30;;;;;;4948507;29;20475;-95
2024/01/01 07:04:48;;;;;;;1.00;0.90;;;5.80;97.30;;;;;;4948596;29;20188;-94
2024/01/01 07:07:17;;;;;;;1.40;1.30;;;5.80;97.30;;;;;;4949275;29;20278;-94
2024/01/01 07:09:43;;;;;;;1.60;1.50;;;5.80;97.30;;;;;;4948335;28;20200;-95
2024/01/01 07:12:27;;;;;;;1.60;1.50;;;5.70;97.30;;;;;;4948246;29;20495;-94
2024/01/01 07:14:53;;;;;;;3.13;2.93;;;5.70;97.30;;;;;;4940860;29;20180;-96
2024/01/01 07:17:20;;;;;;;1.73;1.43;;;5.70;97.30;;;;;;4945969;29;20415;-96
2024/01/01 07:19:46;;;;;;;1.33;1.23;;;5.70;97.30;;;;;;4939115;29;20428;-94
2024/01/01 07:22:12;;;;;;;2.00;1.17;;;5.80;97.30;;;;;;4945837;29;20447;-95
2024/01/01 07:24:38;;;;;;;2.57;2.00;;;5.80;97.30;;;;;;4947028;29;20455;-94
2024/01/01 07:27:05;;;;;;;1.10;1.00;;;5.90;97.30;;;;;;4946578;29;20439;-94
2024/01/01 07:29:30;;;;;;;3.07;1.30;;;5.90;97.30;;;;;;4946195;29;20463;-94
2024/01/01 07:31:56;;;;;;;1.40;1.30;;;5.90;97.30;;;;;;4950515;29;20543;-94
2024/01/01 07:34:22;;;;;;;1.70;1.40;;;5.90;97.30;;;;;;4950983;28;20184;-93
2024/01/01 07:36:51;;;;;;;1.83;1.73;;;6.00;97.30;;;;;;4949977;29;20431;-94
2024/01/01 07:39:19;;;;;;;1.33;1.23;;;6.00;97.30;;;;;;4951171;28;20992;-95
2024/01/01 07:41:49;;;;;;;1.40;1.30;;;6.00;97.30;;;;;;4948609;28;20450;-94
2024/01/01 07:44:15;;;;;;;1.00;0.90;;;6.10;97.30;;;;;;4950364;29;20436;-94
2024/01/01 07:46:43;;;;;;;3.10;2.90;;;6.10;97.30;;;;;;4948598;29;20558;-94
2024/01/01 07:49:09;;;;;;;1.63;1.53;;;6.10;97.30;;;;;;4948908;29;20203;-95
2024/01/01 07:51:35;;;;;;;1.77;1.43;;;6.10;97.30;;;;;;4948594;29;20524;-95
2024/01/01 07:54:01;;;;;;;1.87;1.77;;;6.10;97.30;;;;;;4950003;29;20191;-95
2024/01/01 07:56:27;;;;;;;2.00;1.53;;;6.10;97.30;;;;;;4950362;29;20514;-95
2024/01/01 07:58:53;;;;;;;1.70;1.60;;;6.10;97.30;;;;;;4932454;29;20188;-94
2024/01/01 08:01:19;;;;;;;2.60;2.40;;;6.10;97.30;;;;;;4946839;29;20455;-94
2024/01/01 08:03:44;;;;;;;1.40;1.30;;;6.10;97.30;;;;;;4948823;29;20198;-93
2024/01/01 08:06:10;;;;;;;1.33;1.23;;;6.10;97.30;;;;;;4947187;28;20420;-95
2024/01/01 08:08:36;;;;;;;1.93;1.83;;;6.20;97.30;;;;;;4949890;29;20231;-93
2024/01/01 08:11:01;;;;;;;1.07;0.97;;;6.20;97.30;;;;;;4948218;29;20204;-94
2024/01/01 08:13:27;;;;;;;1.10;1.00;;;6.20;97.30;;;;;;4949496;29;20188;-94
2024/01/01 08:15:52;;;;;;;1.50;1.40;;;6.20;97.30;;;;;;4949584;29;20188;-94
2024/01/01 08:18:18;;;;;;;1.10;1.00;;;6.30;97.30;;;;;;4946404;29;20548;-96
2024/01/01 08:20:43;;;;;;;6.67;1.53;;;6.30;97.30;;;;;;4946378;28;20214;-95
2024/01/01 08:23:10;;;;;;;1.83;1.40;;;6.30;97.30;;;;;;4944804;29;20188;-93
2024/01/01 08:25:36;;;;;;;1.70;1.60;;;6.40;97.30;;;;;;4946725;29;20180;-96
2024/01/01 08:28:01;;;;;;;1.73;1.03;;;6.40;97.30;;;;;;4946580;28;20523;-95
2024/01/01 08:30:27;;;;;;;1.97;1.87;;;6.50;97.30;;;;;;4943972;29;20543;-93
2024/01/01 08:32:52;;;;;;;1.23;1.00;;;6.50;97.30;;;;;;4948270;29;20172;-96
2024/01/01 08:35:18;;;;;;;1.87;1.63;;;6.60;97.30;;;;;;4946938;29;20175;-93
2024/01/01 08:37:44;;;;;;;2.30;2.00;;;6.60;97.30;;;;;;4946928;29;20662;-93
2024/01/01 08:40:10;;;;;;;1.37;1.27;;;6.70;97.30;;;;;;4946562;29;20650;-95
2024/01/01 08:42:36;;;;;;;1.80;1.17;;;6.70;97.30;;;;;;4945606;29;20203;-94
2024/01/01 08:45:03;;;;;;;2.60;1.67;;;6.70;97.30;;;;;;4945165;29;20448;-94
2024/01/01 08:47:29;;;;;;;1.10;1.00;;;6.80;97.30;;;;;;4944069;29;20431;-94
2024/01/01 08:49:55;;;;;;;3.50;3.30;;;6.90;97.30;;;;;;4942183;29;20456;-93
2024/01/01 08:52:20;;;;;;;1.53;1.43;;;6.90;97.30;;;;;;4942381;29;20200;-94
2024/01/01 08:54:46;;;;;;;0.93;0.83;;;7.00;97.30;;;;;;4950031;29;20216;-93
2024/01/01 08:57:11;;;;;;;2.37;2.23;;;7.10;97.30;;;;;;4945247;29;20186;-94
2024/01/01 08:59:39;;;;;;;1.83;1.73;;;7.20;97.30;;;;;;4944507;29;20564;-95
2024/01/01 09:02:05;;;;;;;1.20;1.10;;;7.20;97.30;;;;;;4929544;29;20235;-93
2024/01/01 09:04:31;;;;;;;2.90;1.77;;;7.20;97.30;;;;;;4948260;29;20423;-96
2024/01/01 09:06:57;;;;;;;1.53;1.43;;;7.30;97.30;;;;;;4946114;29;20436;-94
2024/01/01 09:09:23;;;;;;;1.70;1.60;;;7.40;97.30;;;;;;4947185;29;20234;-95
2024/01/01 09:11:49;;;;;;;1.77;1.67;;;7.40;97.30;;;;;;4945342;29;20431;-94
2024/01/01 09:14:14;;;;;;;1.57;1.50;;;7.50;97.30;;;;;;4943290;29;20270;-94
2024/01/01 09:16:40;;;;;;;3.13;1.47;;;7.60;97.30;;;;;;4942929;28;20455;-94
2024/01/01 09:19:06;;;;;;;1.40;1.30;;;7.60;97.30;;;;;;4944938;29;20284;-93
2024/01/01 09:21:31;;;;;;;1.13;1.10;;;7.60;97.30;;;;;;4944708;29;20200;-95
2024/01/01 09:24:00;;;;;;;1.53;1.43;;;7.70;97.30;;;;;;4959131;29;20182;-96
2024/01/01 09:26:27;;;;;;;1.77;1.67;;;7.60;97.30;;;;;;4942563;29;20192;-94
2024/01/01 09:28:53;;;;;;;3.13;1.93;;;7.50;97.30;;;;;;4931284;29;20448;-93
2024/01/01 09:31:19;;;;;;;1.80;1.73;;;7.50;97.30;;;;;;4938488;29;20980;-94
2024/01/01 09:33:44;;;;;;;21.53;2.83;;;7.40;97.30;;;;;;4938895;29;20555;-94
2024/01/01 09:36:13;;;;;;;3.17;1.40;;;7.40;97.30;;;;;;4941783;28;20191;-95
2024/01/01 09:38:39;;;;;;;1.23;1.13;;;7.30;97.30;;;;;;4939075;29;20211;-93
2024/01/01 09:41:09;;;;;;;2.93;1.27;;;7.30;97.30;;;;;;4941279;29;20530;-92
2024/01/01 09:43:34;;;;;;;4.00;1.20;;;7.30;97.30;;;;;;4942490;29;20455;-95
2024/01/01 09:46:00;;;;;;;11.20;2.80;;;7.30;97.30;;;;;;4994105;23;21068;-63
2024/01/01 09:48:25;;;;;;;1.10;1.00;;;7.30;97.30;;;;;;4968728;28;20186;-64
2024/01/01 09:50:51;;;;;;;4.10;1.70;;;7.30;97.30;;;;;;4963848;28;20214;-61
2024/01/01 09:53:17;;;;;;;1.57;1.30;;;7.30;97.30;;;;;;4968094;28;20210;-63
2024/01/01 09:55:53;;;;;;;2.17;1.93;;;7.30;97.30;;;;;;4969719;28;20214;-62
2024/01/01 09:58:19;;;;;;;1.33;1.23;;;7.30;97.30;;;;;;4968538;28;20860;-62
2024/01/01 10:00:45;;;;;;;1.10;1.00;;;7.40;97.30;;;;;;4969279;28;20480;-63
2024/01/01 10:03:11;;;;;;;1.30;1.20;;;7.40;97.30;;;;;;4969748;28;20450;-62
2024/01/01 10:05:40;;;;;;;1.10;1.00;;;7.40;97.30;;;;;;4967697;28;20182;-63
2024/01/01 10:08:14;;;;;;;1.47;1.37;;;7.40;97.30;;;;;;4969452;28;20627;-63
2024/01/01 10:10:40;;;;;;;1.30;1.20;;;7.50;97.30;;;;;;4967799;28;21168;-63
2024/01/01 10:13:11;;;;;;;1.00;0.90;;;7.50;97.30;;;;;;4969238;28;20442;-63
2024/01/01 10:15:39;;;;;;;1.83;1.73;;;7.50;97.30;;;;;;4969265;28;20414;-63
2024/01/01 10:18:15;;;;;;;5.63;3.27;;;7.60;97.30;;;;;;4969247;28;20422;-63
2024/01/01 10:20:42;;;;;;;7.90;1.40;;;7.60;97.30;;;;;;4968700;28;20429;-63
2024/01/01 10:23:20;;;;;;;1.20;1.10;;;7.60;97.30;;;;;;4968249;28;20449;-63
2024/01/01 10:25:47;;;;;;;6.83;2.53;;;7.70;97.30;;;;;;4966338;28;20421;-63
2024/01/01 10:28:16;;;;;;;3.03;1.63;;;7.70;97.30;;;;;;4968838;28;20522;-63
2024/01/01 10:30:46;;;;;;;3.27;1.93;;;7.70;97.30;;;;;;4966551;28;20450;-63
2024/01/01 10:33:13;;;;;;;1.23;1.13;;;7.80;97.30;;;;;;4964249;28;20454;-62
2024/01/01 10:35:40;;;;;;;1.97;1.87;;;7.80;97.30;;;;;;4966411;28;20962;-64
2024/01/01 10:38:06;;;;;;;1.90;1.83;;;7.80;97.30;;;;;;4967404;28;20438;-65
2024/01/01 10:40:32;;;;;;;1.30;1.20;;;7.80;97.30;;;;;;4967561;28;20430;-62
2024/01/01 10:42:58;;;;;;;1.43;1.37;;;7.80;97.30;;;;;;4968396;28;20268;-63
2024/01/01 10:45:23;;;;;;;1.93;1.40;;;7.80;97.30;;;;;;4968993;28;20280;-62
2024/01/01 10:47:51;;;;;;;1.43;1.33;;;7.90;97.30;;;;;;4967113;28;20438;-62
2024/01/01 10:50:31;;;;;;;5.40;1.97;;;7.90;97.30;;;;;;4971409;28;20205;-62
2024/01/01 10:53:29;;;;;;;2.50;2.30;;;7.90;97.30;;;;;;4968759;28;21004;-62
2024/01/01 10:56:25;;;;;;;2.07;1.93;;;8.00;97.30;;;;;;4968626;28;20429;-62
2024/01/01 10:59:02;;;;;;;1.00;0.90;;;8.00;97.30;;;;;;4968498;28;20426;-62
2024/01/01 11:01:28;;;;;;;1.60;1.50;;;8.00;97.30;;;;;;4967191;28;20446;-62
2024/01/01 11:03:54;;;;;;;1.10;1.00;;;8.10;97.30;;;;;;4967712;28;20507;-62
2024/01/01 11:06:29;;;;;;;3.60;1.53;;;8.10;97.30;;;;;;4972921;28;21009;-63
2024/01/01 11:08:55;;;;;;;1.27;1.17;;;8.10;97.30;;;;;;4972690;28;20684;-62
2024/01/01 11:11:22;;;;;;;1.27;1.10;;;8.20;97.30;;;;;;4971680;28;20433;-63
2024/01/01 11:13:48;;;;;;;1.40;1.30;;;8.20;97.30;;;;;;4970853;28;20926;-63
2024/01/01 11:16:13;;;;;;;2.33;1.20;;;8.20;97.30;;;;;;4971327;28;20745;-63
2024/01/01 11:18:39;;;;;;;1.33;1.23;;;8.20;97.30;;;;;;4971277;28;20570;-63
2024/01/01 11:21:07;;;;;;;2.83;1.33;;;8.20;97.30;;;;;;4971030;28;20574;-63
2024/01/01 11:23:48;;;;;;;0.90;0.80;;;8.20;97.30;;;;;;4972735;28;20188;-62
2024/01/01 11:26:23;;;;;;;17.80;1.60;;;8.30;97.30;;;;;;4972323;28;20440;-63
2024/01/01 11:28:56;;;;;;;1.13;1.03;;;8.30;97.30;;;;;;4969319;28;20540;-62
2024/01/01 11:31:22;;;;;;;1.27;1.17;;;8.30;97.30;;;;;;4963708;28;20864;-62
2024/01/01 11:34:07;;;;;;;1.00;0.90;;;8.40;97.30;;;;;;4962836;28;20430;-63
2024/01/01 11:36:33;;;;;;;3.13;1.83;;;8.40;97.30;;;;;;4967186;28;21025;-62
2024/01/01 11:39:00;;;;;;;1.30;1.20;;;8.40;97.30;;;;;;4968321;28;20430;-63
2024/01/01 11:41:30;;;;;;;0.90;0.80;;;8.50;97.30;;;;;;4970773;28;20445;-62
2024/01/01 11:44:11;;;;;;;1.47;1.00;;;8.50;97.30;;;;;;4970145;28;20430;-61
2024/01/01 11:46:37;;;;;;;0.90;0.80;;;8.50;97.30;;;;;;4971007;28;20985;-63
2024/01/01 11:49:04;;;;;;;1.27;1.17;;;8.60;97.30;;;;;;4971670;28;20453;-62
2024/01/01 11:51:34;;;;;;;2.13;1.07;;;8.60;97.30;;;;;;4970340;28;20438;-62
2024/01/01 11:54:10;;;;;;;1.10;1.00;;;8.60;97.20;;;;;;4972346;28;20441;-62
2024/01/01 11:56:39;;;;;;;2.40;1.20;;;8.70;97.20;;;;;;4971086;28;20504;-62
2024/01/01 11:59:08;;;;;;;1.10;1.00;;;8.70;97.10;;;;;;4971593;28;20437;-62
2024/01/01 12:01:36;;;;;;;1.43;1.10;;;8.70;97.30;;;;;;4969621;28;20460;-63
2024/01/01 12:04:05;;;;;;;1.03;0.93;;;8.80;96.90;;;;;;4971535;28;20708;-63
2024/01/01 12:06:32;;;;;;;0.90;0.80;;;8.80;97.10;;;;;;4970899;28;20484;-63
2024/01/01 12:09:06;;;;;;;1.00;0.90;;;8.80;96.90;;;;;;4970464;28;20510;-63
2024/01/01 12:11:31;;;;;;;0.80;0.70;;;8.90;96.60;;;;;;4970180;28;20442;-64
2024/01/01 12:13:58;;;;;;;0.90;0.80;;;8.90;96.50;;;;;;4970228;28;20421;-65
2024/01/01 12:16:24;;;;;;;1.00;0.90;;;8.90;96.30;;;;;;4970086;28;20189;-62
2024/01/01 12:19:00;;;;;;;22.77;1.47;;;9.00;96.40;;;;;;4967821;28;20449;-64
2024/01/01 12:21:39;;;;;;;1.00;0.90;;;9.00;96.20;;;;;;4962804;28;20473;-60
2024/01/01 12:24:07;;;;;;;1.30;1.20;;;9.10;96.10;;;;;;4968204;28;20437;-62
2024/01/01 12:26:34;;;;;;;1.80;1.70;;;9.30;96.30;;;;;;4970110;28;20924;-63
2024/01/01 12:29:19;;;;;;;1.33;1.23;;;9.40;95.80;;;;;;4970130;28;21015;-62
2024/01/01 12:31:46;;;;;;;1.30;1.20;;;9.60;95.40;;;;;;4969988;28;20445;-62
2024/01/01 12:34:14;;;;;;;0.90;0.80;;;9.90;95.10;;;;;;4968724;28;20433;-62
2024/01/01 12:36:41;;;;;;;4.47;2.00;;;10.00;94.30;;;;;;4954908;28;20411;-62
2024/01/01 12:39:07;;;;;;;1.87;1.30;;;9.80;94.60;;;;;;4968406;28;20533;-63
2024/01/01 12:41:33;;;;;;;0.90;0.80;;;9.70;94.70;;;;;;4970259;28;20477;-63
2024/01/01 12:43:59;;;;;;;1.03;0.90;;;9.60;95.10;;;;;;4966703;28;20697;-62
2024/01/01 12:46:25;;;;;;;3.63;1.97;;;9.50;95.30;;;;;;4954791;28;20244;-63
2024/01/01 12:48:51;;;;;;;1.03;0.93;;;9.40;95.20;;;;;;4967504;28;20465;-62
2024/01/01 12:51:20;;;;;;;6.33;1.10;;;9.50;95.70;;;;;;4965114;28;20448;-62
2024/01/01 12:53:46;;;;;;;1.17;0.97;;;9.70;95.90;;;;;;4964682;28;20741;-62
2024/01/01 12:56:11;;;;;;;0.90;0.80;;;10.00;95.40;;;;;;4965112;28;20421;-61
2024/01/01 12:58:41;;;;;;;1.13;1.07;;;10.20;94.30;;;;;;4962470;28;20175;-62
2024/01/01 13:01:07;;;;;;;1.10;1.00;;;10.30;93.90;;;;;;4966092;28;20257;-63
2024/01/01 13:03:33;;;;;;;1.67;1.57;;;10.40;94.20;;;;;;4962037;28;20422;-62
2024/01/01 13:05:58;;;;;;;1.10;1.00;;;10.30;94.10;;;;;;4963970;28;20429;-62
2024/01/01 13:08:24;;;;;;;4.00;1.27;;;10.10;94.70;;;;;;4963230;28;20183;-62
2024/01/01 13:10:49;;;;;;;1.20;1.10;;;10.10;94.70;;;;;;4961828;28;20182;-63
2024/01/01 13:13:15;;;;;;;1.00;0.90;;;10.10;94.90;;;;;;4962350;28;20194;-63
2024/01/01 13:15:40;;;;;;;1.00;0.90;;;10.40;94.10;;;;;;4960671;28;20528;-63
2024/01/01 13:18:06;;;;;;;1.50;1.40;;;10.30;93.70;;;;;;4964266;28;20198;-63
2024/01/01 13:20:32;;;;;;;1.00;0.90;;;10.20;93.80;;;;;;4964286;28;20709;-63
2024/01/01 13:22:58;;;;;;;1.87;1.30;;;10.70;93.50;;;;;;4964244;28;20199;-64
2024/01/01 13:25:24;;;;;;;1.23;1.13;;;10.90;93.20;;;;;;4963792;28;20418;-65
2024/01/01 13:27:51;;;;;;;2.50;1.97;;;10.80;93.20;;;;;;4964323;28;20626;-64
2024/01/01 13:30:17;;;;;;;4.33;1.63;;;10.50;93.30;;;;;;4967332;28;20474;-64
2024/01/01 13:32:43;;;;;;;1.00;0.90;;;10.10;94.30;;;;;;4964481;28;20894;-63
2024/01/01 13:35:08;;;;;;;0.83;0.77;;;9.90;94.90;;;;;;4964686;28;21010;-64
2024/01/01 13:37:34;;;;;;;1.67;1.47;;;9.80;95.40;;;;;;4965867;28;20508;-63
2024/01/01 13:40:00;;;;;;;1.20;1.10;;;9.60;95.80;;;;;;4956851;28;20187;-63
2024/01/01 13:42:25;;;;;;;2.47;1.17;;;9.50;96.00;;;;;;4966036;28;20446;-65
2024/01/01 13:44:51;;;;;;;0.90;0.80;;;9.40;96.30;;;;;;4963653;28;20233;-64
2024/01/01 13:47:16;;;;;;;0.90;0.80;;;9.30;96.60;;;;;;4968201;28;20667;-65
2024/01/01 13:49:42;;;;;;;1.10;1.00;;;9.30;96.80;;;;;;4965042;28;20213;-64
2024/01/01 13:52:07;;;;;;;9.07;2.50;;;9.20;97.00;;;;;;4964640;28;20202;-63
2024/01/01 13:54:33;;;;;;;1.00;0.90;;;9.20;97.00;;;;;;4960541;28;20760;-63
2024/01/01 13:56:59;;;;;;;0.80;0.70;;;9.20;97.30;;;;;;4961556;28;20599;-64
2024/01/01 13:59:25;;;;;;;1.00;0.90;;;9.10;97.20;;;;;;4968194;28;20429;-63
2024/01/01 14:01:51;;;;;;;0.97;0.87;;;9.10;97.00;;;;;;4965117;28;20266;-63
2024/01/01 14:04:17;;;;;;;1.20;1.10;;;9.10;97.10;;;;;;4965110;28;20539;-63
2024/01/01 14:06:43;;;;;;;1.33;1.23;;;9.10;97.20;;;;;;4964379;28;20438;-65
2024/01/01 14:09:09;;;;;;;5.23;1.77;;;9.10;97.30;;;;;;4964812;28;20224;-62
2024/01/01 14:11:46;;;;;;;0.90;0.80;;;9.10;97.30;;;;;;4964577;28;20225;-64
2024/01/01 14:14:12;;;;;;;1.40;1.30;;;9.10;97.30;;;;;;4965029;28;20414;-63
2024/01/01 14:16:37;;;;;;;1.10;1.00;;;9.00;97.30;;;;;;4971212;28;20421;-65
2024/01/01 14:19:03;;;;;;;0.90;0.80;;;9.00;97.30;;;;;;4965942;28;20422;-62
2024/01/01 14:21:29;;;;;;;1.13;1.03;;;8.90;97.30;;;;;;4959973;28;20681;-63
2024/01/01 14:23:54;;;;;;;1.57;1.47;;;8.90;97.30;;;;;;4970804;28;20665;-63
2024/01/01 14:26:20;;;;;;;3.53;1.83;;;8.90;97.30;;;;;;4966318;28;20178;-64
2024/01/01 14:28:45;;;;;;;1.00;0.90;;;8.80;97.30;;;;;;4974149;28;20574;-63
2024/01/01 14:31:14;;;;;;;1.10;1.00;;;8.80;97.30;;;;;;4971494;28;20676;-63
2024/01/01 14:33:42;;;;;;;1.17;1.07;;;8.80;97.30;;;;;;4981832;28;20201;-63
2024/01/01 14:36:08;;;;;;;1.30;1.20;;;8.80;97.30;;;;;;4975321;28;20860;-63
2024/01/01 14:38:33;;;;;;;3.43;2.20;;;8.70;97.30;;;;;;4976345;28;20572;-64
2024/01/01 14:40:59;;;;;;;1.00;0.90;;;8.70;97.30;;;;;;4969685;28;20430;-65
2024/01/01 14:43:25;;;;;;;1.00;0.90;;;8.60;97.30;;;;;;4971587;28;20249;-63
2024/01/01 14:45:51;;;;;;;0.97;0.87;;;8.60;97.30;;;;;;4970302;28;20225;-64
2024/01/01 14:48:16;;;;;;;0.93;0.83;;;8.60;97.30;;;;;;4972605;28;20190;-63
2024/01/01 14:50:44;;;;;;;1.00;0.90;;;8.50;97.30;;;;;;4972337;28;20198;-62
2024/01/01 14:53:10;;;;;;;1.47;1.37;;;8.50;97.30;;;;;;4972411;28;20598;-63
2024/01/01 14:55:35;;;;;;;4.20;2.23;;;8.40;97.30;;;;;;4970807;28;20430;-65
2024/01/01 14:58:01;;;;;;;0.90;0.80;;;8.40;97.30;;;;;;4971381;28;20209;-63
2024/01/01 15:00:27;;;;;;;1.00;0.90;;;8.40;97.30;;;;;;4971237;28;20186;-64
2024/01/01 15:02:53;;;;;;;1.03;0.93;;;8.40;97.30;;;;;;4971049;28;20571;-63
2024/01/01 15:05:18;;;;;;;1.30;1.20;;;8.30;97.30;;;;;;4972418;28;20422;-65
2024/01/01 15:07:44;;;;;;;1.00;0.90;;;8.30;97.30;;;;;;4971212;28;20671;-64
2024/01/01 15:10:09;;;;;;;1.20;1.10;;;8.30;97.30;;;;;;4970188;28;20214;-64
2024/01/01 15:12:35;;;;;;;1.47;1.37;;;8.20;97.30;;;;;;4970761;28;20211;-64
2024/01/01 15:15:00;;;;;;;1.00;0.90;;;8.20;97.30;;;;;;4971935;28;20264;-63
2024/01/01 15:17:27;;;;;;;1.17;1.07;;;8.20;97.30;;;;;;4970711;28;20186;-62
2024/01/01 15:19:53;;;;;;;0.90;0.80;;;8.10;97.30;;;;;;4970788;28;20178;-65
2024/01/01 15:22:19;;;;;;;5.43;1.37;;;8.10;97.30;;;;;;4970577;28;20457;-66
2024/01/01 15:24:44;;;;;;;1.37;1.27;;;8.10;97.30;;;;;;4970047;28;20229;-63
2024/01/01 15:27:12;;;;;;;2.20;1.63;;;8.00;97.30;;;;;;4972108;28;20178;-62
2024/01/01 15:29:39;;;;;;;1.50;1.40;;;8.00;97.30;;;;;;4971893;28;20210;-64
2024/01/01 15:32:07;;;;;;;2.87;2.47;;;8.00;97.30;;;;;;4970395;28;20745;-64
2024/01/01 15:34:35;;;;;;;1.10;1.00;;;8.00;97.30;;;;;;4970045;28;20430;-66
2024/01/01 15:37:04;;;;;;;1.10;1.00;;;8.00;97.30;;;;;;4968732;28;20807;-64
2024/01/01 15:39:29;;;;;;;1.10;1.00;;;8.00;97.30;;;;;;4964663;28;20469;-64
2024/01/01 15:41:55;;;;;;;1.20;1.10;;;8.00;97.30;;;;;;4969338;28;20477;-63
2024/01/01 15:44:20;;;;;;;2.57;2.37;;;8.00;97.30;;;;;;4969337;28;20667;-66
2024/01/01 15:46:46;;;;;;;1.10;1.00;;;8.00;97.30;;;;;;4970398;28;20269;-62
2024/01/01 15:49:13;;;;;;;1.33;1.23;;;8.00;97.30;;;;;;4966846;28;20218;-63
2024/01/01 15:51:38;;;;;;;1.00;0.90;;;8.00;97.30;;;;;;4969532;28;20252;-63
2024/01/01 15:54:04;;;;;;;1.23;1.07;;;8.00;97.30;;;;;;4970444;28;20516;-64
2024/01/01 15:56:30;;;;;;;3.33;1.60;;;8.00;97.30;;;;;;4969125;28;20277;-65
2024/01/01 15:58:56;;;;;;;1.87;1.77;;;8.00;97.30;;;;;;4970701;28;21034;-62
2024/01/01 16:01:22;;;;;;;3.23;3.03;;;8.00;97.30;;;;;;4970623;28;20175;-63
2024/01/01 16:03:47;;;;;;;1.10;1.00;;;7.90;97.30;;;;;;4970686;28;20258;-63
2024/01/01 16:06:13;;;;;;;2.03;1.93;;;7.90;97.30;;;;;;4970609;28;20512;-64
2024/01/01 16:08:39;;;;;;;3.20;1.43;;;7.90;97.30;;;;;;4969514;28;20198;-64
2024/01/01 16:11:04;;;;;;;1.50;1.40;;;7.90;97.30;;;;;;4970478;28;20187;-64
2024/01/01 16:13:30;;;;;;;1.20;1.00;;;7.80;97.30;;;;;;4969547;28;20182;-65
2024/01/01 16:15:56;;;;;;;1.20;1.10;;;7.80;97.30;;;;;;4971147;28;20601;-64
2024/01/01 16:18:22;;;;;;;5.93;1.97;;;7.80;97.30;;;;;;4968802;28;20175;-64
2024/01/01 16:20:48;;;;;;;1.40;1.30;;;7.80;97.30;;;;;;4966161;28;20187;-62
2024/01/01 16:23:14;;;;;;;1.37;1.27;;;7.90;97.30;;;;;;4966663;28;20972;-63
2024/01/01 16:25:40;;;;;;;1.67;1.43;;;7.90;97.30;;;;;;4966858;28;21005;-63
2024/01/01 16:28:05;;;;;;;1.30;1.20;;;7.90;97.30;;;;;;4966786;28;20186;-63
2024/01/01 16:30:31;;;;;;;1.10;1.00;;;7.80;97.30;;;;;;4963683;28;20213;-66
2024/01/01 16:32:56;;;;;;;1.30;1.20;;;7.90;97.30;;;;;;4965455;28;20753;-66
2024/01/01 16:35:23;;;;;;;0.93;0.83;;;7.90;97.30;;;;;;4965366;28;20269;-64
2024/01/01 16:37:49;;;;;;;1.50;1.43;;;7.90;97.30;;;;;;4969150;28;20175;-63
2024/01/01 16:40:15;;;;;;;0.97;0.90;;;7.80;97.30;;;;;;4969368;28;20434;-64
2024/01/01 16:42:40;;;;;;;2.70;1.37;;;7.80;97.30;;;;;;4968116;28;20453;-66
2024/01/01 16:45:07;;;;;;;5.30;1.70;;;7.80;97.30;;;;;;4968795;28;20423;-65
2024/01/01 16:47:32;;;;;;;1.40;1.30;;;7.80;97.30;;;;;;4969008;28;20193;-65
2024/01/01 16:50:00;;;;;;;1.30;1.20;;;7.80;97.30;;;;;;4969223;28;20462;-65
2024/01/01 16:52:26;;;;;;;1.80;1.63;;;7.80;97.30;;;;;;4980953;28;20242;-65
2024/01/01 16:54:53;;;;;;;1.40;1.27;;;7.70;97.30;;;;;;4964413;28;20512;-65
2024/01/01 16:57:20;;;;;;;1.07;0.97;;;7.70;97.30;;;;;;4965455;28;20197;-65
2024/01/01 16:59:46;;;;;;;1.00;0.90;;;7.70;97.30;;;;;;4966978;28;20434;-64
2024/01/01 17:02:11;;;;;;;1.67;1.57;;;7.70;97.30;;;;;;4965002;28;20468;-65
2024/01/01 17:04:39;;;;;;;1.43;1.33;;;7.70;97.30;;;;;;4964266;28;20186;-64
2024/01/01 17:07:04;;;;;;;1.10;1.00;;;7.60;97.30;;;;;;4967443;28;20210;-66
2024/01/01 17:09:30;;;;;;;1.20;1.10;;;7.60;97.30;;;;;;4966245;28;20513;-64
2024/01/01 17:11:57;;;;;;;0.90;0.80;;;7.60;97.30;;;;;;4966847;28;20511;-64
2024/01/01 17:14:24;;;;;;;1.20;1.10;;;7.60;97.30;;;;;;4960536;28;20824;-64
2024/01/01 17:16:50;;;;;;;2.23;1.30;;;7.60;97.30;;;;;;4966613;28;20435;-64
2024/01/01 17:19:16;;;;;;;1.63;1.57;;;7.60;97.30;;;;;;4965726;28;20778;-65
2024/01/01 17:21:43;;;;;;;1.60;1.50;;;7.60;97.30;;;;;;4965129;28;20972;-64
2024/01/01 17:24:09;;;;;;;0.90;0.80;;;7.60;97.30;;;;;;4965214;28;20433;-64
2024/01/01 17:26:34;;;;;;;2.00;1.00;;;7.60;97.30;;;;;;4966947;28;20418;-63
2024/01/01 17:29:00;;;;;;;2.23;1.90;;;7.60;97.30;;;;;;4965897;28;20213;-64
2024/01/01 17:31:25;;;;;;;2.60;2.40;;;7.60;97.30;;;;;;4967402;28;20301;-63
2024/01/01 17:33:51;;;;;;;2.07;1.93;;;7.60;97.30;;;;;;4974400;28;20642;-64
2024/01/01 17:36:17;;;;;;;1.10;1.00;;;7.60;97.30;;;;;;4973008;28;20186;-63
2024/01/01 17:38:43;;;;;;;1.23;1.13;;;7.60;97.30;;;;;;4966554;28;20190;-65
2024/01/01 17:41:09;;;;;;;6.17;3.70;;;7.60;97.30;;;;;;4966714;28;20674;-65
2024/01/01 17:43:34;;;;;;;1.30;1.20;;;7.60;97.30;;;;;;4968098;28;20602;-64
2024/01/01 17:46:03;;;;;;;1.80;1.63;;;7.60;97.30;;;;;;4968090;28;20210;-64
2024/01/01 17:48:28;;;;;;;1.10;1.00;;;7.60;97.30;;;;;;4969013;28;20690;-64
2024/01/01 17:50:54;;;;;;;1.20;1.10;;;7.60;97.30;;;;;;4967621;28;20462;-65
2024/01/01 17:53:19;;;;;;;1.27;1.17;;;7.60;97.30;;;;;;4963388;28;20206;-64